createdAt,value
2023-05-05T00:00:58.094Z,101592.73
2023-05-05T00:03:25.555Z,101591.63
2023-05-05T00:05:53.367Z,101590.65
2023-05-05T00:08:20.652Z,101596.95
2023-05-05T00:10:48.052Z,101585.05
2023-05-05T00:13:15.166Z,101587.21
2023-05-05T00:15:42.785Z,101589.76
2023-05-05T00:18:10.189Z,101585.72
2023-05-05T00:20:37.690Z,101584.95
2023-05-05T00:23:04.818Z,101587.43
2023-05-05T00:25:31.802Z,101589.13
2023-05-05T00:27:58.751Z,101589.39
2023-05-05T00:30:26.054Z,101591.34
2023-05-05T00:32:53.883Z,101596.55
2023-05-05T00:35:20.882Z,101591.95
2023-05-05T00:37:47.866Z,101595.16
2023-05-05T00:40:14.926Z,101597.48
2023-05-05T00:42:43.130Z,101599.42
2023-05-05T00:45:11.448Z,101597.69
2023-05-05T00:47:38.931Z,101600.47
2023-05-05T00:50:08.364Z,101595.79
2023-05-05T00:52:38.612Z,101592.66
2023-05-05T00:55:05.988Z,101590.59
2023-05-05T00:57:33.152Z,101588.85
2023-05-05T01:00:01.462Z,101587.53
2023-05-05T01:02:28.436Z,101584.61
2023-05-05T01:04:56.347Z,101581.11
2023-05-05T01:07:40.824Z,101578.12
2023-05-05T01:10:19.892Z,101574.27
2023-05-05T01:13:28.970Z,101576.57
2023-05-05T01:16:03.822Z,101577.70
2023-05-05T01:18:51.701Z,101577.15
2023-05-05T01:21:23.559Z,101577.59
2023-05-05T01:24:14.800Z,101576.08
2023-05-05T01:27:04.812Z,101568.80
2023-05-05T01:29:38.650Z,101568.12
2023-05-05T01:32:10.461Z,101564.13
2023-05-05T01:34:44.515Z,101563.80
2023-05-05T01:37:22.916Z,101558.85
2023-05-05T01:39:51.918Z,101555.05
2023-05-05T01:42:18.866Z,101552.08
2023-05-05T01:44:45.765Z,101548.32
2023-05-05T01:47:14.844Z,101548.95
2023-05-05T01:49:43.311Z,101546.79
2023-05-05T01:52:10.399Z,101547.79
2023-05-05T01:54:37.383Z,101548.94
2023-05-05T01:57:05.033Z,101549.65
2023-05-05T01:59:32.965Z,101546.66
2023-05-05T02:02:01.167Z,101544.83
2023-05-05T02:04:28.516Z,101545.88
2023-05-05T02:06:57.272Z,101544.48
2023-05-05T02:09:25.468Z,101542.46
2023-05-05T02:11:53.334Z,101536.98
2023-05-05T02:14:20.602Z,101535.24
2023-05-05T02:16:47.546Z,101534.20
2023-05-05T02:19:14.510Z,101537.12
2023-05-05T02:21:42.253Z,101538.41
2023-05-05T02:24:09.229Z,101540.55
2023-05-05T02:26:40.319Z,101539.09
2023-05-05T02:29:08.179Z,101538.77
2023-05-05T02:31:42.503Z,101538.93
2023-05-05T02:34:09.605Z,101541.76
2023-05-05T02:36:38.282Z,101544.41
2023-05-05T02:39:14.462Z,101547.09
2023-05-05T02:41:42.082Z,101551.92
2023-05-05T02:44:14.095Z,101553.16
2023-05-05T02:46:41.332Z,101551.75
2023-05-05T02:49:08.420Z,101548.27
2023-05-05T02:51:36.246Z,101546.73
2023-05-05T02:54:06.412Z,101545.34
2023-05-05T02:56:41.225Z,101549.28
2023-05-05T02:59:16.325Z,101547.09
2023-05-05T03:01:52.967Z,101546.55
2023-05-05T03:04:28.190Z,101545.38
2023-05-05T03:06:59.684Z,101540.25
2023-05-05T03:09:36.964Z,101540.60
2023-05-05T03:12:06.097Z,101541.90
2023-05-05T03:14:43.415Z,101540.50
2023-05-05T03:17:12.481Z,101538.16
2023-05-05T03:19:41.823Z,101539.33
2023-05-05T03:22:08.817Z,101537.88
2023-05-05T03:24:36.760Z,101539.95
2023-05-05T03:27:06.211Z,101536.28
2023-05-05T03:29:35.945Z,101538.09
2023-05-05T03:32:04.676Z,101534.23
2023-05-05T03:34:32.592Z,101535.02
2023-05-05T03:36:59.994Z,101535.02
2023-05-05T03:39:26.965Z,101532.27
2023-05-05T03:41:54.530Z,101532.22
2023-05-05T03:44:21.894Z,101531.50
2023-05-05T03:46:48.947Z,101530.62
2023-05-05T03:49:16.472Z,101532.21
2023-05-05T03:51:44.578Z,101535.81
2023-05-05T03:54:11.567Z,101534.41
2023-05-05T03:56:38.785Z,101536.36
2023-05-05T03:59:06.375Z,101534.63
2023-05-05T04:01:35.313Z,101531.52
2023-05-05T04:04:02.769Z,101531.91
2023-05-05T04:06:29.833Z,101530.41
2023-05-05T04:08:56.844Z,101533.50
2023-05-05T04:11:23.808Z,101529.77
2023-05-05T04:13:51.243Z,101529.83
2023-05-05T04:16:18.489Z,101529.39
2023-05-05T04:18:45.897Z,101531.31
2023-05-05T04:21:13.252Z,101529.89
2023-05-05T04:23:40.634Z,101528.43
2023-05-05T04:26:07.642Z,101527.15
2023-05-05T04:28:34.689Z,101522.81
2023-05-05T04:31:05.252Z,101522.77
2023-05-05T04:33:33.864Z,101521.41
2023-05-05T04:36:00.984Z,101523.77
2023-05-05T04:38:28.652Z,101523.29
2023-05-05T04:40:55.794Z,101525.81
2023-05-05T04:43:22.997Z,101527.45
2023-05-05T04:45:56.640Z,101528.96
2023-05-05T04:48:26.494Z,101524.73
2023-05-05T04:50:53.616Z,101524.54
2023-05-05T04:53:20.817Z,101524.30
2023-05-05T04:55:47.738Z,101522.14
2023-05-05T04:58:14.733Z,101527.82
2023-05-05T05:00:41.764Z,101526.41
2023-05-05T05:03:10.256Z,101528.83
2023-05-05T05:05:37.406Z,101527.73
2023-05-05T05:08:04.620Z,101523.91
2023-05-05T05:10:31.716Z,101522.73
2023-05-05T05:12:58.745Z,101523.48
2023-05-05T05:15:25.855Z,101523.54
2023-05-05T05:17:53.030Z,101522.13
2023-05-05T05:20:20.370Z,101526.14
2023-05-05T05:22:47.638Z,101528.41
2023-05-05T05:25:17.118Z,101520.75
2023-05-05T05:27:50.157Z,101523.60
2023-05-05T05:30:22.937Z,101522.67
2023-05-05T05:32:50.344Z,101525.27
2023-05-05T05:35:20.742Z,101517.98
2023-05-05T05:37:48.147Z,101517.34
2023-05-05T05:40:15.428Z,101515.68
2023-05-05T05:42:42.569Z,101517.86
2023-05-05T05:45:10.050Z,101516.73
2023-05-05T05:47:39.800Z,101519.90
2023-05-05T05:50:07.700Z,101518.42
2023-05-05T05:52:36.358Z,101512.77
2023-05-05T05:55:05.231Z,101514.48
2023-05-05T05:57:32.222Z,101507.80
2023-05-05T06:00:01.771Z,101504.59
2023-05-05T06:02:39.147Z,101502.11
2023-05-05T06:05:08.015Z,101503.31
2023-05-05T06:07:35.405Z,101505.65
2023-05-05T06:10:14.412Z,101508.10
2023-05-05T06:12:49.956Z,101506.39
2023-05-05T06:15:17.107Z,101504.14
2023-05-05T06:17:44.365Z,101504.11
2023-05-05T06:20:13.948Z,101502.30
2023-05-05T06:22:43.091Z,101507.98
2023-05-05T06:25:11.049Z,101509.52
2023-05-05T06:27:38.343Z,101503.38
2023-05-05T06:30:06.890Z,101503.20
2023-05-05T06:32:33.987Z,101493.25
2023-05-05T06:35:01.154Z,101494.36
2023-05-05T06:37:28.084Z,101487.88
2023-05-05T06:39:54.986Z,101487.50
2023-05-05T06:42:22.026Z,101487.73
2023-05-05T06:44:51.110Z,101485.93
2023-05-05T06:47:17.994Z,101489.01
2023-05-05T06:49:45.022Z,101488.39
2023-05-05T06:52:12.722Z,101489.58
2023-05-05T06:54:39.678Z,101486.05
2023-05-05T06:57:06.703Z,101484.27
2023-05-05T06:59:33.806Z,101484.41
2023-05-05T07:02:00.846Z,101488.94
2023-05-05T07:04:28.194Z,101486.13
2023-05-05T07:06:58.637Z,101488.42
2023-05-05T07:09:25.742Z,101491.65
2023-05-05T07:11:52.660Z,101491.75
2023-05-05T07:14:22.700Z,101492.02
2023-05-05T07:16:51.677Z,101490.95
2023-05-05T07:19:18.618Z,101490.98
2023-05-05T07:21:48.684Z,101492.89
2023-05-05T07:24:16.124Z,101488.27
2023-05-05T07:26:43.601Z,101493.08
2023-05-05T07:29:10.696Z,101487.48
2023-05-05T07:31:37.711Z,101484.98
2023-05-05T07:34:04.969Z,101486.67
2023-05-05T07:36:32.366Z,101487.45
2023-05-05T07:38:59.329Z,101486.62
2023-05-05T07:41:26.735Z,101487.10
2023-05-05T07:43:53.992Z,101488.20
2023-05-05T07:46:20.978Z,101481.55
2023-05-05T07:48:53.251Z,101484.46
2023-05-05T07:51:21.608Z,101483.52
2023-05-05T07:53:50.763Z,101484.96
2023-05-05T07:56:18.410Z,101482.89
2023-05-05T07:58:46.896Z,101480.15
2023-05-05T08:01:14.015Z,101480.00
2023-05-05T08:03:41.881Z,101478.83
2023-05-05T08:06:11.639Z,101479.61
2023-05-05T08:08:38.610Z,101479.44
2023-05-05T08:11:06.702Z,101483.80
2023-05-05T08:13:34.543Z,101484.38
2023-05-05T08:16:04.695Z,101477.06
2023-05-05T08:18:31.895Z,101477.41
2023-05-05T08:20:59.075Z,101479.23
2023-05-05T08:23:26.319Z,101477.85
2023-05-05T08:26:01.328Z,101480.86
2023-05-05T08:28:36.961Z,101477.94
2023-05-05T08:31:07.096Z,101477.71
2023-05-05T08:33:37.015Z,101478.29
2023-05-05T08:36:06.416Z,101480.73
2023-05-05T08:38:33.546Z,101483.30
2023-05-05T08:41:00.610Z,101485.98
2023-05-05T08:43:27.632Z,101487.27
2023-05-05T08:45:54.765Z,101490.29
2023-05-05T08:48:21.728Z,101495.52
2023-05-05T08:50:55.012Z,101499.36
2023-05-05T08:53:33.424Z,101498.45
2023-05-05T08:56:03.090Z,101501.05
2023-05-05T08:58:30.838Z,101501.58
2023-05-05T09:01:00.240Z,101499.49
2023-05-05T09:03:27.572Z,101494.17
2023-05-05T09:05:54.812Z,101492.23
2023-05-05T09:08:21.984Z,101492.31
2023-05-05T09:10:49.179Z,101489.92
2023-05-05T09:13:16.718Z,101492.61
2023-05-05T09:15:43.890Z,101492.54
2023-05-05T09:18:12.476Z,101488.64
2023-05-05T09:20:39.995Z,101488.89
2023-05-05T09:23:11.677Z,101492.66
2023-05-05T09:25:40.592Z,101493.02
2023-05-05T09:28:09.592Z,101488.00
2023-05-05T09:30:36.875Z,101487.91
2023-05-05T09:33:03.990Z,101486.69
2023-05-05T09:35:56.658Z,101482.10
2023-05-05T09:38:24.275Z,101484.24
2023-05-05T09:40:52.477Z,101490.06
2023-05-05T09:43:21.683Z,101490.73
2023-05-05T09:45:49.496Z,101492.09
2023-05-05T09:48:31.815Z,101489.92
2023-05-05T09:51:01.791Z,101485.83
2023-05-05T09:53:38.710Z,101486.80
2023-05-05T09:56:06.475Z,101487.05
2023-05-05T09:58:36.786Z,101488.11
2023-05-05T10:01:03.875Z,101484.33
2023-05-05T10:03:33.250Z,101486.36
2023-05-05T10:06:02.322Z,101488.31
2023-05-05T10:08:31.025Z,101488.95
2023-05-05T10:11:04.789Z,101489.45
2023-05-05T10:13:35.868Z,101487.07
2023-05-05T10:16:03.831Z,101491.02
2023-05-05T10:18:31.870Z,101495.57
2023-05-05T10:21:03.300Z,101488.94
2023-05-05T10:23:42.779Z,101485.45
2023-05-05T10:26:10.716Z,101482.30
2023-05-05T10:28:42.652Z,101482.60
2023-05-05T10:31:23.822Z,101476.48
2023-05-05T10:34:01.633Z,101476.19
2023-05-05T10:36:29.992Z,101479.48
2023-05-05T10:38:58.055Z,101478.05
2023-05-05T10:41:26.332Z,101477.16
2023-05-05T10:43:55.199Z,101481.06
2023-05-05T10:46:23.286Z,101476.55
2023-05-05T10:49:18.113Z,101475.89
2023-05-05T10:52:00.608Z,101472.70
2023-05-05T10:54:38.300Z,101471.15
2023-05-05T10:57:06.380Z,101468.79
2023-05-05T10:59:36.737Z,101465.89
2023-05-05T11:02:42.254Z,101464.44
2023-05-05T11:05:21.288Z,101462.26
2023-05-05T11:07:50.073Z,101457.47
2023-05-05T11:10:20.537Z,101456.61
2023-05-05T11:13:03.113Z,101455.59
2023-05-05T11:15:30.548Z,101451.09
2023-05-05T11:18:08.283Z,101449.92
2023-05-05T11:20:44.005Z,101445.20
2023-05-05T11:23:13.998Z,101448.16
2023-05-05T11:25:44.698Z,101445.89
2023-05-05T11:28:12.338Z,101440.62
2023-05-05T11:31:00.614Z,101439.21
2023-05-05T11:33:46.355Z,101436.08
2023-05-05T11:36:14.747Z,101435.11
2023-05-05T11:39:12.160Z,101433.63
2023-05-05T11:42:11.369Z,101433.14
2023-05-05T11:44:38.565Z,101433.45
2023-05-05T11:47:06.014Z,101432.94
2023-05-05T11:49:36.541Z,101432.33
2023-05-05T11:52:07.751Z,101429.17
2023-05-05T11:54:35.775Z,101431.40
2023-05-05T11:57:07.733Z,101430.88
2023-05-05T11:59:37.419Z,101423.59
2023-05-05T12:02:04.668Z,101424.16
2023-05-05T12:04:34.319Z,101420.65
2023-05-05T12:07:01.316Z,101420.56
2023-05-05T12:09:28.261Z,101414.81
2023-05-05T12:11:56.092Z,101408.92
2023-05-05T12:14:30.470Z,101412.39
2023-05-05T12:16:59.137Z,101410.33
2023-05-05T12:19:31.670Z,101409.48
2023-05-05T12:21:59.794Z,101406.06
2023-05-05T12:24:27.770Z,101402.02
2023-05-05T12:26:54.720Z,101400.11
2023-05-05T12:29:25.527Z,101399.10
2023-05-05T12:31:52.697Z,101395.35
2023-05-05T12:34:20.707Z,101395.30
2023-05-05T12:36:50.212Z,101389.18
2023-05-05T12:39:17.373Z,101386.39
2023-05-05T12:41:46.308Z,101385.23
2023-05-05T12:44:14.604Z,101379.05
2023-05-05T12:46:48.301Z,101380.00
2023-05-05T12:49:21.613Z,101375.96
2023-05-05T12:51:57.886Z,101374.80
2023-05-05T12:54:25.743Z,101374.48
2023-05-05T12:56:52.909Z,101370.66
2023-05-05T12:59:23.001Z,101364.92
2023-05-05T13:01:51.794Z,101358.14
2023-05-05T13:04:19.417Z,101357.77
2023-05-05T13:06:47.812Z,101355.74
2023-05-05T13:09:28.310Z,101352.16
2023-05-05T13:11:55.406Z,101351.20
2023-05-05T13:14:22.984Z,101348.42
2023-05-05T13:16:49.926Z,101345.27
2023-05-05T13:19:16.937Z,101346.34
2023-05-05T13:21:43.941Z,101342.79
2023-05-05T13:24:21.426Z,101339.88
2023-05-05T13:26:53.410Z,101336.36
2023-05-05T13:29:20.754Z,101334.57
2023-05-05T13:31:47.798Z,101334.92
2023-05-05T13:34:14.915Z,101332.73
2023-05-05T13:36:41.998Z,101331.17
2023-05-05T13:39:09.221Z,101328.74
2023-05-05T13:41:36.318Z,101330.27
2023-05-05T13:44:03.236Z,101325.98
2023-05-05T13:46:30.218Z,101324.23
2023-05-05T13:48:57.420Z,101319.23
2023-05-05T13:51:24.325Z,101314.52
2023-05-05T13:53:51.592Z,101312.34
2023-05-05T13:56:19.211Z,101306.46
2023-05-05T13:58:46.462Z,101304.68
2023-05-05T14:01:13.566Z,101305.49
2023-05-05T14:03:41.773Z,101301.89
2023-05-05T14:06:09.315Z,101298.05
2023-05-05T14:08:36.520Z,101297.46
2023-05-05T14:11:03.900Z,101296.14
2023-05-05T14:13:31.160Z,101295.86
2023-05-05T14:15:58.481Z,101293.23
2023-05-05T14:18:27.668Z,101288.52
2023-05-05T14:20:54.638Z,101284.82
2023-05-05T14:23:21.576Z,101282.31
2023-05-05T14:25:48.485Z,101281.17
2023-05-05T14:28:15.370Z,101279.70
2023-05-05T14:30:42.838Z,101278.29
2023-05-05T14:33:10.333Z,101278.58
2023-05-05T14:35:37.555Z,101278.98
2023-05-05T14:38:04.559Z,101275.53
2023-05-05T14:40:31.717Z,101272.13
2023-05-05T14:42:58.725Z,101275.98
2023-05-05T14:45:27.428Z,101273.05
2023-05-05T14:47:54.531Z,101270.02
2023-05-05T14:50:22.959Z,101269.34
2023-05-05T14:52:49.996Z,101265.09
2023-05-05T14:55:17.127Z,101267.25
2023-05-05T14:57:44.150Z,101266.27
2023-05-05T15:00:11.383Z,101263.83
2023-05-05T15:02:38.460Z,101263.35
2023-05-05T15:05:08.593Z,101261.88
2023-05-05T15:07:35.877Z,101260.38
2023-05-05T15:10:02.930Z,101258.20
2023-05-05T15:12:29.959Z,101257.36
2023-05-05T15:14:56.909Z,101258.41
2023-05-05T15:17:24.123Z,101255.33
2023-05-05T15:19:51.201Z,101257.75
2023-05-05T15:22:18.258Z,101259.13
2023-05-05T15:24:45.741Z,101261.69
2023-05-05T15:27:12.719Z,101262.30
2023-05-05T15:29:39.736Z,101263.03
2023-05-05T15:32:06.874Z,101261.14
2023-05-05T15:34:34.115Z,101261.69
2023-05-05T15:37:01.086Z,101258.14
2023-05-05T15:39:28.187Z,101255.40
2023-05-05T15:41:55.185Z,101251.84
2023-05-05T15:44:22.252Z,101257.29
2023-05-05T15:46:50.497Z,101256.17
2023-05-05T15:49:17.841Z,101257.59
2023-05-05T15:51:44.763Z,101258.00
2023-05-05T15:54:11.734Z,101255.41
2023-05-05T15:56:38.937Z,101256.48
2023-05-05T15:59:05.861Z,101258.23
2023-05-05T16:01:33.787Z,101258.18
2023-05-05T16:04:01.372Z,101256.96
2023-05-05T16:06:28.739Z,101255.03
2023-05-05T16:08:58.564Z,101260.08
2023-05-05T16:11:26.640Z,101262.40
2023-05-05T16:13:53.630Z,101258.63
2023-05-05T16:16:21.016Z,101259.91
2023-05-05T16:18:48.130Z,101259.73
2023-05-05T16:21:15.201Z,101264.45
2023-05-05T16:23:42.169Z,101267.38
2023-05-05T16:26:09.097Z,101269.67
2023-05-05T16:28:36.165Z,101271.23
2023-05-05T16:31:03.251Z,101276.76
2023-05-05T16:33:30.298Z,101275.15
2023-05-05T16:35:57.265Z,101275.65
2023-05-05T16:38:24.289Z,101273.48
2023-05-05T16:40:51.246Z,101277.29
2023-05-05T16:43:19.630Z,101276.95
2023-05-05T16:45:46.828Z,101273.58
2023-05-05T16:48:14.816Z,101274.26
2023-05-05T16:50:41.749Z,101277.77
2023-05-05T16:53:10.105Z,101276.53
2023-05-05T16:55:37.507Z,101277.84
2023-05-05T16:58:04.680Z,101276.33
2023-05-05T17:00:31.750Z,101275.89
2023-05-05T17:02:58.719Z,101271.59
2023-05-05T17:05:25.685Z,101272.73
2023-05-05T17:07:52.758Z,101274.77
2023-05-05T17:10:19.663Z,101281.05
2023-05-05T17:12:46.591Z,101279.95
2023-05-05T17:15:13.596Z,101282.27
2023-05-05T17:17:42.349Z,101277.45
2023-05-05T17:20:10.581Z,101278.51
2023-05-05T17:22:37.641Z,101280.81
2023-05-05T17:25:05.896Z,101282.95
2023-05-05T17:27:32.951Z,101283.34
2023-05-05T17:30:00.062Z,101285.48
2023-05-05T17:32:27.360Z,101285.27
2023-05-05T17:34:54.193Z,101285.19
2023-05-05T17:37:21.170Z,101289.21
2023-05-05T17:39:48.240Z,101292.94
2023-05-05T17:42:16.715Z,101294.61
2023-05-05T17:44:50.139Z,101294.29
2023-05-05T17:47:22.280Z,101296.31
2023-05-05T17:49:49.394Z,101299.18
2023-05-05T17:52:16.340Z,101298.55
2023-05-05T17:54:43.328Z,101301.75
2023-05-05T17:57:10.337Z,101303.38
2023-05-05T17:59:37.267Z,101306.70
2023-05-05T18:02:04.396Z,101307.51
2023-05-05T18:04:31.388Z,101308.38
2023-05-05T18:06:58.404Z,101308.11
2023-05-05T18:09:25.445Z,101306.54
2023-05-05T18:11:53.673Z,101307.79
2023-05-05T18:14:21.438Z,101308.95
2023-05-05T18:16:50.724Z,101310.32
2023-05-05T18:19:21.194Z,101311.27
2023-05-05T18:21:51.603Z,101311.52
2023-05-05T18:24:20.378Z,101310.52
2023-05-05T18:26:51.463Z,101311.45
2023-05-05T18:29:19.046Z,101313.13
2023-05-05T18:31:48.670Z,101312.55
2023-05-05T18:34:16.859Z,101315.02
2023-05-05T18:36:43.810Z,101315.45
2023-05-05T18:39:11.419Z,101313.71
2023-05-05T18:41:38.480Z,101312.21
2023-05-05T18:44:05.431Z,101316.43
2023-05-05T18:46:32.479Z,101325.99
2023-05-05T18:49:00.602Z,101336.71
2023-05-05T18:51:28.004Z,101331.14
2023-05-05T18:53:55.024Z,101326.15
2023-05-05T18:56:22.121Z,101323.20
2023-05-05T18:58:49.182Z,101326.55
2023-05-05T19:01:16.502Z,101329.48
2023-05-05T19:03:48.159Z,101334.05
2023-05-05T19:06:15.658Z,101330.30
2023-05-05T19:08:43.393Z,101328.45
2023-05-05T19:11:10.448Z,101325.78
2023-05-05T19:16:11.458Z,101323.09
2023-05-05T19:18:39.422Z,101324.83
2023-05-05T19:21:06.542Z,101322.06
2023-05-05T19:23:33.615Z,101321.10
2023-05-05T19:26:00.769Z,101322.09
2023-05-05T19:28:27.733Z,101320.89
2023-05-05T19:30:54.771Z,101316.34
2023-05-05T19:33:22.511Z,101315.31
2023-05-05T19:35:49.528Z,101321.69
2023-05-05T19:38:16.892Z,101319.40
2023-05-05T19:40:43.959Z,101323.86
2023-05-05T19:43:11.302Z,101321.91
2023-05-05T19:45:38.346Z,101328.29
2023-05-05T19:48:05.668Z,101324.26
2023-05-05T19:50:32.689Z,101324.71
2023-05-05T19:52:59.639Z,101321.64
2023-05-05T19:55:27.141Z,101324.92
2023-05-05T19:57:54.180Z,101322.73
2023-05-05T20:00:21.721Z,101323.27
2023-05-05T20:02:49.358Z,101319.95
2023-05-05T20:05:17.698Z,101320.65
2023-05-05T20:07:46.468Z,101320.52
2023-05-05T20:10:13.644Z,101314.94
2023-05-05T20:12:48.373Z,101311.24
2023-05-05T20:15:18.717Z,101311.77
2023-05-05T20:17:48.917Z,101312.70
2023-05-05T20:20:17.597Z,101309.95
2023-05-05T20:22:45.343Z,101311.16
2023-05-05T20:25:12.679Z,101302.40
2023-05-05T20:27:39.643Z,101303.20
2023-05-05T20:30:07.808Z,101304.38
2023-05-05T20:32:35.122Z,101305.09
2023-05-05T20:35:02.706Z,101307.27
2023-05-05T20:37:29.654Z,101300.90
2023-05-05T20:39:57.472Z,101302.39
2023-05-05T20:42:25.655Z,101300.84
2023-05-05T20:44:52.774Z,101302.36
2023-05-05T20:47:19.714Z,101304.75
2023-05-05T20:49:46.709Z,101302.98
2023-05-05T20:52:13.616Z,101310.14
2023-05-05T20:54:40.655Z,101310.27
2023-05-05T20:57:07.726Z,101309.08
2023-05-05T20:59:34.610Z,101307.81
2023-05-05T21:02:01.520Z,101306.54
2023-05-05T21:04:28.499Z,101303.59
2023-05-05T21:06:55.915Z,101303.02
2023-05-05T21:09:23.512Z,101308.35
2023-05-05T21:11:50.516Z,101304.73
2023-05-05T21:14:17.368Z,101309.50
2023-05-05T21:16:44.560Z,101313.53
2023-05-05T21:19:11.507Z,101320.55
2023-05-05T21:21:38.482Z,101321.06
2023-05-05T21:24:07.746Z,101319.27
2023-05-05T21:26:35.190Z,101323.89
2023-05-05T21:29:02.061Z,101322.37
2023-05-05T21:31:28.983Z,101328.82
2023-05-05T21:33:55.976Z,101327.80
2023-05-05T21:36:23.011Z,101331.86
2023-05-05T21:38:49.929Z,101328.05
2023-05-05T21:41:16.899Z,101328.42
2023-05-05T21:43:43.955Z,101329.86
2023-05-05T21:46:10.987Z,101328.95
2023-05-05T21:48:39.079Z,101333.08
2023-05-05T21:51:06.853Z,101330.05
2023-05-05T21:53:34.050Z,101331.06
2023-05-05T21:56:01.450Z,101333.00
2023-05-05T21:58:29.168Z,101336.77
2023-05-05T22:00:56.550Z,101339.08
2023-05-05T22:03:23.545Z,101340.70
2023-05-05T22:05:50.628Z,101341.74
2023-05-05T22:08:18.135Z,101345.73
2023-05-05T22:10:45.156Z,101346.77
2023-05-05T22:13:12.142Z,101343.64
2023-05-05T22:15:46.822Z,101346.36
2023-05-05T22:18:15.453Z,101344.61
2023-05-05T22:20:42.759Z,101345.73
2023-05-05T22:23:09.706Z,101344.88
2023-05-05T22:25:36.651Z,101342.88
2023-05-05T22:28:04.261Z,101342.77
2023-05-05T22:30:31.489Z,101342.77
2023-05-05T22:32:58.544Z,101342.46
2023-05-05T22:35:25.462Z,101337.02
2023-05-05T22:37:52.431Z,101338.31
2023-05-05T22:40:19.437Z,101335.81
2023-05-05T22:42:46.278Z,101330.70
2023-05-05T22:45:13.466Z,101333.85
2023-05-05T22:47:40.794Z,101332.90
2023-05-05T22:50:08.357Z,101332.91
2023-05-05T22:52:35.521Z,101332.48
2023-05-05T22:55:02.761Z,101334.03
2023-05-05T22:57:29.712Z,101330.39
2023-05-05T22:59:56.662Z,101328.71
2023-05-05T23:02:23.936Z,101332.19
2023-05-05T23:04:52.680Z,101328.61
2023-05-05T23:07:19.926Z,101327.52
2023-05-05T23:09:47.130Z,101329.86
2023-05-05T23:12:14.080Z,101331.09
2023-05-05T23:14:41.077Z,101332.89
2023-05-05T23:17:08.064Z,101334.02
2023-05-05T23:19:35.113Z,101331.90
2023-05-05T23:22:02.347Z,101332.38
2023-05-05T23:24:29.284Z,101334.21
2023-05-05T23:26:59.009Z,101335.68
2023-05-05T23:29:25.891Z,101334.27
2023-05-05T23:31:52.886Z,101336.91
2023-05-05T23:34:19.821Z,101334.34
2023-05-05T23:36:46.852Z,101335.98
2023-05-05T23:39:13.742Z,101336.44
2023-05-05T23:41:40.618Z,101334.36
2023-05-05T23:44:07.702Z,101342.54
2023-05-05T23:46:34.799Z,101342.36
2023-05-05T23:49:01.798Z,101341.04
2023-05-05T23:51:28.717Z,101342.45
2023-05-05T23:53:56.855Z,101344.83
2023-05-05T23:56:24.605Z,101343.80
2023-05-05T23:58:52.533Z,101347.36
